Terminal Aerodrome Forecast
Issued by NWS Cleveland, OH

Home | Current Version | Previous Version | Text Only | Print | Product List | Glossary Off
Versions: 1 2 3 4 5 6 7 8 9 10 11 12 13 14 15 16

134
FTUS41 KCLE 211731
TAFCAK
TAF
KCAK 211731Z 2118/2218 18012KT P6SM BKN015 OVC025
      TEMPO 2118/2122 SCT025 BKN035
     FM220000 21010KT P6SM -SHRA VCTS BKN015 OVC025CB
     FM220300 23009KT P6SM BKN040
     FM220800 24005KT 6SM BR BKN025=

USA.gov is the U.S. government's official web portal to all federal, state and local government web resources and services.